Latest Observation

42 Stations

15 Minute Data | America/Los_Angeles
as of 5/5/26 9:48 AM PDT
Station Date Time Temp (°F) RH (%) Dew Pt (°F) Wind Spd (mph) Wind Dir (°) Wind Gust (mph) Latest Rain (In) Daily Rain (In) Daily Min Temp (°F) Daily Max Temp (°F) Daily Max Wind (mph)
Elk Mt. Farm 5/5/26 0945 58.3   3.6 - - - - - - - 47.3   0.1 59.0   3.1 -
Upper Lake 5/5/26 0945 56.2   2.9 79   4 49.8   1.6 3.1 WSW | 244 7.7   2.3 0.00 0.00 48.9   1.5 57.1   2.6 10.6   1.4
Scotts Valley 5/5/26 0945 57.8   1.4 74   1 49.5   0.9 1.4 SE | 126 3.7   0.1 0.00 0.00 44.4   5.7 58.1   0.9 5.3   1.0
Scotts Valley-South (Bella Vista) 5/5/26 0945 57.3   0.9 68   0 46.8   1.1 1.6 NE | 52 4.1   3.2 0.00 0.00 45.5   4.3 57.8   0.8 6.8   1.3
Kelseyville 5/5/26 0945 55.2   0.6 79   5 48.8   1.2 2.5 ENE | 71 5.3   2.2 0.00 0.00 47.8   2.8 56.4   0.9 6.1   2.6
Kelseyville Remote 5/5/26 0930 56.3   0.3 68   2 46.0   1.2 - - - 0.00 0.00 48.7   3.0 57.1   0.1 -
Kelseyville (Clark Drive) 5/5/26 0945 57.0   0.5 - - - - - 0.00 0.00 48.9   1.7 57.8   1.0 -
Kelsey Bench (Oaklea) 5/5/26 0945 55.5   0.6 74   2 47.2   1.4 0.9 NE | 41 7.0   7.0 0.00 0.00 47.3   1.7 56.6   0.4 7.0   5.0
Smith Lane (Kelseyville-South) 5/5/26 0945 57.7   1.2 72   1 48.9   1.7 1.0 N | 2 3.8   1.7 0.00 0.00 47.4   3.3 58.8   1.6 6.5   0.6
Bell Hill-West 5/5/26 0945 56.0   1.0 85   8 51.7   1.8 1.9 SE | 146 5.1   2.0 0.00 0.00 46.9   3.8 56.7   0.6 7.8   0.0
High Valley Ridgeline (Brassfield) 5/5/26 0945 49.9   0.1 90   1 47.1   0.3 3.1 WSW | 244 5.7   6.6 0.00 0.00 46.1   1.0 50.6   0.2 19.6   7.1
Wight Way (Adobe Creek) 5/5/26 0900 56.0   0.4 73   6 47.6   1.9 2.2 SE | 141 4.3   0.3 0.00 0.00 46.3   4.0 56.2   0.3 7.7   1.2
Ridgeline Top (Brassfield) 5/5/26 0945 51.6   0.8 - - - - - - - 46.1   1.0 52.2   0.6 -
Ridgeline Low (Brassfield) 5/5/26 0945 51.9   0.2 - - - - - - - 48.0   0.9 52.8   0.4 -
Long Valley (Shannon) 5/5/26 0845 54.6   2.4 86   4 50.5   1.2 2.0 ENE | 70 3.5   0.3 0.00 0.00 48.9   1.9 54.6   2.4 4.5   0.3
High Valley Winery 5/5/26 0945 54.8   0.8 78   0 48.1   0.8 3.0 WSW | 258 5.0   7.4 0.00 0.00 48.3   4.0 55.0   0.4 16.0   3.0
Round Mtn Rd. 5/5/26 0915 53.2   0.5 - - - - - - - 46.9   1.4 53.9   0.3 -
Circle O 5/5/26 0945 51.7   1.6 - - - - - - - 46.2   0.5 52.2   2.6 -
Robertsbridge Vineyards 5/5/26 0945 54.5   0.4 78   5 47.7   1.5 - - - - - 47.0   1.8 55.9   0.1 -
Urgency Vineyard 5/5/26 0945 57.0   0.5 69   3 46.9   0.6 1.5 W | 276 5.2   3.9 0.00 0.00 48.1   0.8 58.2   1.8 10.9   1.5
Red Hills (Beckstoffer) 5/5/26 0945 59.5   4.2 67   3 48.6   2.9 - - - 0.00 0.00 48.3   0.6 59.6   4.2 -
Winters (Shannon) 5/5/26 0945 53.6   0.9 74   6 45.4   1.2 1.2 NNW | 328 2.9   8.0 0.00 0.00 47.0   1.3 54.0   0.5 14.8   3.1
Secret Pond (Shannon) 5/5/26 0945 54.9   0.1 70   1 45.2   0.5 2.3 W | 274 5.8   6.7 0.00 0.00 46.4   1.1 56.5   1.0 16.1   3.5
Rolling Knolls (Shannon) 5/5/26 0945 56.7   2.0 71   5 47.2   0.1 1.4 W | 275 5.6   6.2 0.00 0.00 49.3   0.8 57.8   1.5 12.7   0.4
Lower Lake 5/5/26 0945 55.7   3.4 74   12 47.6   1.4 2.7 NNW | 332 7.0   5.4 0.00 0.00 49.7   0.7 57.6   1.5 19.0   6.6
Adamson Ranch 5/5/26 0945 56.4   1.9 76   10 48.9   2.1 0.6 NNW | 329 3.5   2.8 0.00 0.00 50.5   0.0 56.4   3.1 6.1   0.7
Middletown (Diamond D) 5/5/26 0945 56.7   2.9 78   13 49.9   2.1 0.3 SW | 224 2.4   2.4 0.00 0.01 51.4   3.4 57.1   2.6 7.6   4.7
Middletown-West (Domaine Helena) 5/5/26 0945 57.5   2.4 79   14 51.1   2.9 1.3 E | 79 4.4   0.1 0.00 0.01 50.0   2.7 57.5   3.3 11.4   2.1
Middletown-South 5/5/26 0945 56.8   2.6 73   12 48.3   2.2 1.2 E | 97 4.1   2.9 0.00 0.00 50.3   3.1 57.2   3.0 17.6   10.2
Jim Davis (Langtry) 5/5/26 0945 54.5   3.3 92   16 52.2   1.8 1.1 E | 92 2.4   5.1 0.00 0.05 51.0   3.1 54.6   3.2 6.2   1.6
Napa Valley Basin 5/5/26 0945 56.2   0.8 89   7 53.0   1.5 1.3 WNW | 284 4.0   4.2 0.00 0.04 52.2   10.1 56.5   0.9 6.0   2.3
Lower Bohn 5/5/26 0945 55.3   3.6 92   17 52.8   2.2 1.8 WSW | 250 4.1   1.5 0.00 0.06 50.2   9.4 55.6   5.7 6.4   0.8
Upper Bohn-North 5/5/26 0945 54.8   3.0 100   27 54.8   5.5 0.6 N | 360 2.0   1.5 0.00 0.05 51.1   5.8 54.8   3.8 5.4   0.1
Snell Peak Blk#9 5/5/26 0945 55.1   1.1 88   10 51.5   2.0 1.2 N | 2 3.5   2.1 0.00 0.04 50.6   4.1 55.4   0.7 5.3   0.3
Coyote Lake West 5/5/26 0945 55.2   0.9 90   10 52.3   2.4 0.9 N | 5 3.4   5.0 0.00 0.03 51.6   5.9 55.3   0.8 6.4   2.1
Coyote Lake Northeast 5/5/26 0945 55.6   0.1 90   10 52.8   2.9 - - - - - 51.7   5.5 55.6   0.2 -
Coyote Lake East 5/5/26 0945 56.6   0.3 89   11 53.6   3.2 - - - - - 52.4   8.4 56.6   0.3 -
Morgan Valley 5/5/26 0945 49.9   4.9 100   23 49.9   2.2 2.1 W | 273 7.0   1.9 0.00 0.00 47.3   0.0 50.3   4.5 22.8   11.8
Mine Pit North 5/5/26 0945 50.0   7.5 97   25 49.3   0.8 4.0 NE | 42 8.9   0.4 - - 48.2   2.6 50.6   7.4 17.1   6.0
Mine Pit South 5/5/26 0945 50.3   5.0 100   26 50.3   3.0 3.7 NNE | 13 11.2   3.7 0.00 0.07 47.6   1.1 50.7   5.4 13.0   4.5
Cow Mountain 5/5/26 0945 46.3   3.9 - - 5.3 N | 355 8.6   3.3 0.00 0.04 41.1   0.1 47.7   1.1 29.8   12.0
Ukiah-SE (Ruddick) 5/5/26 0945 57.4   2.0 67   4 46.7   0.5 4.7 N | 353 8.1   0.4 0.00 0.00 51.7   2.5 58.8   3.2 9.5   1.0
Max     59.5 100 54.8 5.3 - 11.2 0.00 0.07 52.4 59.6 29.8
Avg     54.9 81 49.4 2.0 - 5.1 0.00 - - - -
Min     46.3 67 45.2 0.3 - 2.0 0.00 0.00 41.1 47.7 4.5